Time;durP1;ratioP1;P1;durP2;ratioP2;P2;SDS_P1;SDS_P2;PMS_P1;PMS_P2;Temp;Humidity;BMP_temperature;BMP_pressure;BME280_temperature;BME280_humidity;BME280_pressure;Samples;Min_cycle;Max_cycle;Signal;HPM_P1;HPM_P2
2021/05/07 00:00:29;;;;;;;17.33;9.60;;;7.70;78.50;;;;;;4938698;29;20462;-90
2021/05/07 00:02:55;;;;;;;17.27;9.50;;;7.80;78.40;;;;;;4938375;29;20131;-89
2021/05/07 00:05:21;;;;;;;16.90;9.47;;;7.70;78.60;;;;;;4938726;29;20067;-90
2021/05/07 00:07:46;;;;;;;16.87;9.40;;;7.70;78.40;;;;;;4938953;29;20028;-89
2021/05/07 00:10:13;;;;;;;16.83;8.93;;;7.70;78.50;;;;;;4938332;29;20027;-90
2021/05/07 00:12:39;;;;;;;17.23;9.47;;;7.70;78.60;;;;;;4939134;29;20121;-90
2021/05/07 00:15:05;;;;;;;16.80;9.60;;;7.70;78.50;;;;;;4938941;29;20027;-90
2021/05/07 00:17:31;;;;;;;16.60;8.90;;;7.70;78.40;;;;;;4938707;29;20085;-89
2021/05/07 00:19:56;;;;;;;17.17;8.67;;;7.70;78.50;;;;;;4938617;29;20031;-90
2021/05/07 00:22:22;;;;;;;16.07;8.57;;;7.70;78.50;;;;;;4938805;29;20038;-90
2021/05/07 00:24:48;;;;;;;16.00;8.83;;;7.70;78.70;;;;;;4937504;29;20473;-90
2021/05/07 00:27:16;;;;;;;16.07;8.77;;;7.70;78.60;;;;;;4938323;29;20477;-90
2021/05/07 00:29:42;;;;;;;16.40;8.98;;;7.70;79.70;;;;;;4938979;29;20425;-90
2021/05/07 00:32:08;;;;;;;15.97;8.37;;;7.70;78.70;;;;;;4939035;29;20118;-90
2021/05/07 00:34:33;;;;;;;17.33;9.13;;;7.70;79.10;;;;;;4938658;29;20054;-90
2021/05/07 00:36:59;;;;;;;16.27;9.17;;;7.80;78.60;;;;;;4938826;29;20119;-90
2021/05/07 00:39:25;;;;;;;16.70;9.07;;;7.80;78.50;;;;;;4938050;29;20035;-90
2021/05/07 00:41:51;;;;;;;16.73;9.13;;;7.80;78.50;;;;;;4938118;29;20035;-90
2021/05/07 00:44:16;;;;;;;16.07;8.93;;;7.80;79.20;;;;;;4938467;29;20031;-90
2021/05/07 00:46:43;;;;;;;17.00;9.23;;;7.70;78.60;;;;;;4940698;29;20039;-90
2021/05/07 00:49:09;;;;;;;17.03;9.03;;;7.70;78.50;;;;;;4942702;29;20027;-89
2021/05/07 00:51:35;;;;;;;16.37;9.23;;;7.70;78.50;;;;;;4942101;29;20027;-89
2021/05/07 00:54:01;;;;;;;17.60;8.27;;;7.70;78.60;;;;;;4942554;29;20019;-91
2021/05/07 00:56:27;;;;;;;16.30;8.93;;;7.70;78.60;;;;;;4959266;28;20031;-91
2021/05/07 00:58:53;;;;;;;15.83;8.80;;;7.70;78.60;;;;;;4943016;29;20024;-90
2021/05/07 01:01:19;;;;;;;15.87;8.73;;;7.60;78.60;;;;;;4942739;29;20066;-90
2021/05/07 01:03:44;;;;;;;16.47;9.50;;;7.60;78.70;;;;;;4941931;29;20483;-90
2021/05/07 01:06:10;;;;;;;18.00;10.23;;;7.60;79.30;;;;;;4942452;29;20400;-90
2021/05/07 01:08:36;;;;;;;17.37;9.63;;;7.60;78.90;;;;;;4942318;29;20019;-90
2021/05/07 01:11:02;;;;;;;17.20;10.27;;;7.60;79.60;;;;;;4942426;29;20118;-90
2021/05/07 01:13:28;;;;;;;19.17;11.00;;;7.60;79.50;;;;;;4942480;29;20050;-90
2021/05/07 01:15:53;;;;;;;17.93;9.80;;;7.60;79.10;;;;;;4940848;29;20038;-89
2021/05/07 01:18:19;;;;;;;17.97;10.50;;;7.60;79.40;;;;;;4942130;29;20028;-90
2021/05/07 01:20:45;;;;;;;17.00;9.87;;;7.60;79.30;;;;;;4942310;29;20158;-89
2021/05/07 01:23:11;;;;;;;17.73;10.77;;;7.60;79.30;;;;;;4942427;29;20523;-89
2021/05/07 01:25:39;;;;;;;18.47;11.47;;;7.50;79.90;;;;;;4942072;29;20083;-90
2021/05/07 01:28:07;;;;;;;19.30;10.82;;;7.60;80.20;;;;;;4941737;29;20027;-90
2021/05/07 01:30:37;;;;;;;18.37;11.23;;;7.50;79.60;;;;;;4942851;29;20074;-90
2021/05/07 01:33:04;;;;;;;18.63;10.70;;;7.50;79.60;;;;;;4942505;29;20041;-89
2021/05/07 01:35:35;;;;;;;18.23;10.57;;;7.50;79.90;;;;;;4942129;29;20031;-91
2021/05/07 01:38:06;;;;;;;18.70;10.33;;;7.50;79.80;;;;;;4942057;29;20560;-90
2021/05/07 01:40:34;;;;;;;19.43;10.90;;;7.40;80.00;;;;;;4941751;29;20038;-91
2021/05/07 01:43:00;;;;;;;18.73;10.57;;;7.40;80.00;;;;;;4941827;29;20081;-90
2021/05/07 01:45:28;;;;;;;17.83;9.70;;;7.40;80.10;;;;;;4941524;29;20094;-90
2021/05/07 01:47:54;;;;;;;18.83;10.43;;;7.40;80.10;;;;;;4942476;29;20079;-90
2021/05/07 01:50:23;;;;;;;17.90;9.93;;;7.40;80.60;;;;;;4941562;29;20035;-90
2021/05/07 01:52:50;;;;;;;17.58;9.30;;;7.40;80.30;;;;;;4941643;29;20729;-89
2021/05/07 01:55:22;;;;;;;16.83;8.63;;;7.30;80.40;;;;;;4941933;29;20118;-90
2021/05/07 01:57:48;;;;;;;16.63;9.03;;;7.30;81.00;;;;;;4943147;29;20035;-90
2021/05/07 02:00:17;;;;;;;16.17;8.97;;;7.40;80.50;;;;;;4942883;29;20038;-90
2021/05/07 02:02:43;;;;;;;;;;;7.40;80.70;;;;;;4943082;29;20039;-89
2021/05/07 02:05:10;;;;;;;15.97;8.00;;;7.30;81.40;;;;;;4942723;29;19913;-90
2021/05/07 02:07:36;;;;;;;15.87;8.10;;;7.30;80.60;;;;;;4942756;29;20567;-90
2021/05/07 02:10:05;;;;;;;15.93;8.70;;;7.30;81.40;;;;;;4942726;29;20023;-90
2021/05/07 02:12:30;;;;;;;15.88;7.57;;;7.30;80.70;;;;;;4942350;29;20083;-90
2021/05/07 02:14:56;;;;;;;15.10;7.93;;;7.30;81.00;;;;;;4942336;29;20059;-90
2021/05/07 02:17:21;;;;;;;14.83;7.17;;;7.30;80.90;;;;;;4941895;29;20024;-91
2021/05/07 02:19:47;;;;;;;15.20;7.60;;;7.20;80.90;;;;;;4941155;29;20114;-89
2021/05/07 02:22:13;;;;;;;14.57;7.40;;;7.20;80.90;;;;;;4942103;29;20034;-90
2021/05/07 02:24:38;;;;;;;15.43;8.07;;;7.20;81.00;;;;;;4942297;29;20028;-90
2021/05/07 02:27:04;;;;;;;15.03;7.67;;;7.20;80.80;;;;;;4941680;29;20028;-90
2021/05/07 02:29:30;;;;;;;14.53;7.30;;;7.20;80.90;;;;;;4940567;29;20078;-91
2021/05/07 02:31:56;;;;;;;15.60;7.73;;;7.30;81.00;;;;;;4941552;29;20032;-90
2021/05/07 02:34:21;;;;;;;14.33;6.53;;;7.20;80.90;;;;;;4958852;28;20117;-89
2021/05/07 02:36:47;;;;;;;14.50;7.20;;;7.20;81.20;;;;;;4942176;29;20511;-90
2021/05/07 02:39:15;;;;;;;15.20;6.90;;;7.20;80.90;;;;;;4941628;29;20055;-90
2021/05/07 02:41:41;;;;;;;16.52;7.15;;;7.20;81.00;;;;;;4942471;29;20484;-90
2021/05/07 02:44:11;;;;;;;14.53;6.90;;;7.10;81.10;;;;;;4941930;29;20019;-90
2021/05/07 02:46:37;;;;;;;14.60;6.82;;;7.10;81.00;;;;;;4942514;29;20042;-90
2021/05/07 02:49:05;;;;;;;14.43;7.27;;;7.10;81.60;;;;;;4942066;29;20031;-90
2021/05/07 02:51:31;;;;;;;14.53;6.20;;;7.10;81.40;;;;;;4941945;29;20027;-90
2021/05/07 02:53:57;;;;;;;13.60;6.23;;;7.10;81.20;;;;;;4941324;29;20031;-91
2021/05/07 02:56:23;;;;;;;15.50;6.63;;;7.10;81.30;;;;;;4941763;29;20037;-91
2021/05/07 02:58:48;;;;;;;13.17;6.33;;;7.10;81.20;;;;;;4941759;29;20122;-90
2021/05/07 03:01:14;;;;;;;14.40;6.63;;;7.00;81.80;;;;;;4941963;29;20035;-90
2021/05/07 03:03:40;;;;;;;14.50;6.20;;;7.00;81.40;;;;;;4940939;29;20050;-90
2021/05/07 03:06:05;;;;;;;12.53;5.47;;;6.90;81.50;;;;;;4940698;29;20062;-89
2021/05/07 03:08:31;;;;;;;13.20;6.37;;;6.90;81.60;;;;;;4939714;29;20117;-90
2021/05/07 03:10:56;;;;;;;15.03;6.13;;;6.90;81.70;;;;;;4938832;29;20030;-89
2021/05/07 03:13:22;;;;;;;15.00;6.30;;;6.90;81.70;;;;;;4939193;29;20027;-90
2021/05/07 03:15:48;;;;;;;13.10;6.10;;;6.80;82.00;;;;;;4940271;29;20057;-90
2021/05/07 03:18:21;;;;;;;15.23;6.30;;;6.80;81.80;;;;;;4940395;29;20027;-90
2021/05/07 03:20:49;;;;;;;16.13;6.40;;;6.80;82.00;;;;;;4940910;29;20031;-89
2021/05/07 03:23:15;;;;;;;14.15;6.60;;;6.70;81.90;;;;;;4941771;29;20034;-90
2021/05/07 03:25:41;;;;;;;14.77;7.00;;;6.70;82.40;;;;;;4940555;29;20035;-90
2021/05/07 03:28:08;;;;;;;15.07;7.10;;;6.60;82.10;;;;;;4940642;29;20039;-90
2021/05/07 03:30:34;;;;;;;15.43;7.53;;;6.60;82.30;;;;;;4940641;29;20023;-90
2021/05/07 03:33:02;;;;;;;14.27;7.23;;;6.60;82.40;;;;;;4940685;29;20037;-89
2021/05/07 03:35:27;;;;;;;17.70;8.90;;;6.60;82.40;;;;;;4941080;29;20031;-89
2021/05/07 03:37:53;;;;;;;15.57;7.60;;;6.60;82.40;;;;;;4940916;29;20236;-90
2021/05/07 03:40:19;;;;;;;16.20;7.70;;;6.60;82.50;;;;;;4941339;29;20023;-89
2021/05/07 03:42:45;;;;;;;15.43;8.13;;;6.60;82.50;;;;;;4939344;29;20050;-90
2021/05/07 03:45:13;;;;;;;15.27;7.77;;;6.60;82.50;;;;;;4939693;29;20390;-90
2021/05/07 03:47:38;;;;;;;16.73;8.27;;;6.60;82.50;;;;;;4939684;29;20046;-90
2021/05/07 03:50:05;;;;;;;16.93;8.37;;;6.60;82.50;;;;;;4939785;29;20020;-90
2021/05/07 03:52:31;;;;;;;16.63;8.50;;;6.50;82.50;;;;;;4939915;29;20037;-90
2021/05/07 03:54:56;;;;;;;15.97;8.47;;;6.60;82.70;;;;;;4940895;29;20049;-90
2021/05/07 03:57:24;;;;;;;16.30;8.07;;;6.50;82.50;;;;;;4939214;29;20015;-90
2021/05/07 03:59:49;;;;;;;18.77;8.47;;;6.50;82.60;;;;;;4939429;29;20027;-90
2021/05/07 04:02:15;;;;;;;16.50;8.30;;;6.50;82.70;;;;;;4939147;29;20037;-90
2021/05/07 04:04:43;;;;;;;17.20;9.23;;;6.50;82.60;;;;;;4939248;29;20062;-90
2021/05/07 04:07:08;;;;;;;17.13;8.37;;;6.50;82.50;;;;;;4938142;29;20138;-90
2021/05/07 04:09:41;;;;;;;16.80;8.93;;;6.50;82.60;;;;;;4940043;29;20058;-90
2021/05/07 04:12:19;;;;;;;16.40;8.33;;;6.50;82.50;;;;;;4939114;29;20027;-89
2021/05/07 04:14:45;;;;;;;17.65;8.75;;;6.50;82.50;;;;;;4939334;29;20024;-90
2021/05/07 04:17:11;;;;;;;18.00;9.33;;;6.50;82.50;;;;;;4940365;29;20058;-89
2021/05/07 04:19:36;;;;;;;15.80;8.10;;;6.50;82.50;;;;;;4939638;29;20037;-90
2021/05/07 04:22:02;;;;;;;17.07;8.73;;;6.40;82.50;;;;;;4938737;29;20536;-90
2021/05/07 04:24:28;;;;;;;17.67;8.70;;;6.50;82.50;;;;;;4940139;29;20419;-89
2021/05/07 04:26:54;;;;;;;16.90;8.60;;;6.40;82.50;;;;;;4940365;29;20038;-90
2021/05/07 04:29:25;;;;;;;17.47;8.63;;;6.40;82.50;;;;;;4939417;29;20041;-89
2021/05/07 04:31:51;;;;;;;17.77;8.50;;;6.50;82.40;;;;;;4939721;29;20408;-89
2021/05/07 04:34:17;;;;;;;16.10;7.73;;;6.50;82.70;;;;;;4939771;29;20031;-90
2021/05/07 04:36:42;;;;;;;17.03;9.10;;;6.50;82.50;;;;;;4940356;29;20373;-90
2021/05/07 04:39:08;;;;;;;16.80;8.60;;;6.50;82.50;;;;;;4940189;29;20376;-90
2021/05/07 04:41:35;;;;;;;16.70;8.87;;;6.50;82.50;;;;;;4940460;29;20432;-90
2021/05/07 04:44:01;;;;;;;17.00;8.93;;;6.50;82.50;;;;;;4939887;29;20528;-88
2021/05/07 04:46:27;;;;;;;18.47;9.20;;;6.40;82.70;;;;;;4941002;29;20452;-89
2021/05/07 04:48:53;;;;;;;16.50;8.47;;;6.40;82.60;;;;;;4942072;29;20117;-89
2021/05/07 04:51:18;;;;;;;18.10;9.07;;;6.40;82.70;;;;;;4941136;29;20035;-88
2021/05/07 04:53:44;;;;;;;17.63;9.37;;;6.40;82.70;;;;;;4941647;29;20039;-89
2021/05/07 04:56:09;;;;;;;16.47;8.97;;;6.40;82.80;;;;;;4941688;29;20048;-89
2021/05/07 04:58:35;;;;;;;17.83;9.37;;;6.40;82.80;;;;;;4941137;29;20038;-89
2021/05/07 05:01:02;;;;;;;19.17;9.60;;;6.40;83.10;;;;;;4941674;29;20513;-88
2021/05/07 05:03:27;;;;;;;18.73;10.20;;;6.40;82.70;;;;;;4941080;29;20062;-88
2021/05/07 05:05:53;;;;;;;17.13;9.77;;;6.40;83.10;;;;;;4941808;29;20031;-85
2021/05/07 05:08:23;;;;;;;17.80;9.27;;;6.40;83.40;;;;;;4941866;29;20023;-85
2021/05/07 05:10:53;;;;;;;17.13;9.17;;;6.50;83.70;;;;;;4942528;29;20073;-84
2021/05/07 05:13:18;;;;;;;19.60;10.20;;;6.40;83.00;;;;;;4942119;29;20024;-84
2021/05/07 05:15:44;;;;;;;18.93;10.07;;;6.50;82.80;;;;;;4942287;29;20086;-84
2021/05/07 05:18:10;;;;;;;18.73;9.93;;;6.40;83.50;;;;;;4942058;29;20027;-85
2021/05/07 05:20:35;;;;;;;19.57;9.93;;;6.40;83.00;;;;;;4942042;29;20027;-84
2021/05/07 05:23:01;;;;;;;17.80;9.73;;;6.40;83.30;;;;;;4957961;29;20038;-85
2021/05/07 05:25:26;;;;;;;18.57;10.17;;;6.50;83.00;;;;;;4955131;28;20066;-84
2021/05/07 05:27:52;;;;;;;17.60;9.70;;;6.50;83.60;;;;;;4930712;29;20047;-84
2021/05/07 05:30:18;;;;;;;19.10;10.83;;;6.50;83.00;;;;;;4941638;28;20034;-84
2021/05/07 05:32:43;;;;;;;19.67;10.33;;;6.50;83.00;;;;;;4944799;29;20023;-84
2021/05/07 05:35:10;;;;;;;17.43;9.30;;;6.50;83.00;;;;;;4942550;29;20031;-84
2021/05/07 05:37:36;;;;;;;19.03;9.50;;;6.50;82.80;;;;;;4943204;29;20035;-84
2021/05/07 05:40:02;;;;;;;17.93;9.23;;;6.60;83.00;;;;;;4943281;29;20493;-84
2021/05/07 05:42:27;;;;;;;16.70;8.47;;;6.60;83.00;;;;;;4943477;29;20067;-85
2021/05/07 05:44:53;;;;;;;16.53;8.23;;;6.60;83.00;;;;;;4942062;29;20042;-85
2021/05/07 05:47:18;;;;;;;15.90;7.77;;;6.60;83.20;;;;;;4940484;29;20489;-85
2021/05/07 05:49:44;;;;;;;15.67;7.93;;;6.60;83.30;;;;;;4942831;29;20066;-84
2021/05/07 05:52:09;;;;;;;17.57;8.07;;;6.60;83.20;;;;;;4943258;29;20027;-85
2021/05/07 05:54:35;;;;;;;14.80;7.57;;;6.70;83.00;;;;;;4941202;29;20034;-84
2021/05/07 05:57:00;;;;;;;15.77;8.07;;;6.70;83.20;;;;;;4942075;29;20034;-87
2021/05/07 05:59:26;;;;;;;14.37;6.50;;;6.70;83.10;;;;;;4944800;29;20058;-84
2021/05/07 06:01:52;;;;;;;15.40;6.80;;;6.70;83.20;;;;;;4962079;29;20035;-87
2021/05/07 06:04:17;;;;;;;14.37;6.60;;;6.70;83.30;;;;;;4942857;29;20027;-88
2021/05/07 06:06:43;;;;;;;13.97;6.07;;;6.80;82.80;;;;;;4943676;29;20180;-87
2021/05/07 06:09:08;;;;;;;12.73;6.00;;;6.80;82.90;;;;;;4943492;29;20038;-87
2021/05/07 06:11:34;;;;;;;11.63;5.17;;;6.80;82.70;;;;;;4944699;29;20106;-90
2021/05/07 06:13:59;;;;;;;13.17;5.97;;;6.80;82.60;;;;;;4943224;29;20038;-90
2021/05/07 06:16:25;;;;;;;13.60;6.07;;;6.80;82.70;;;;;;4944411;29;20059;-89
2021/05/07 06:18:51;;;;;;;12.17;5.93;;;6.80;82.80;;;;;;4944124;29;20042;-89
2021/05/07 06:21:16;;;;;;;11.83;5.47;;;6.80;82.80;;;;;;4943612;29;20023;-88
2021/05/07 06:23:42;;;;;;;14.30;6.37;;;6.80;82.70;;;;;;4942049;29;20051;-90
2021/05/07 06:26:07;;;;;;;12.10;5.30;;;6.80;82.80;;;;;;4941096;29;20024;-90
2021/05/07 06:28:33;;;;;;;12.07;6.10;;;6.80;83.30;;;;;;4943497;28;20027;-89
2021/05/07 06:30:59;;;;;;;12.00;5.43;;;6.80;82.60;;;;;;4944560;29;20042;-91
2021/05/07 06:33:27;;;;;;;13.73;6.10;;;6.90;82.70;;;;;;4946086;29;20472;-90
2021/05/07 06:35:54;;;;;;;10.77;4.78;;;6.90;83.00;;;;;;4939026;29;20188;-91
2021/05/07 06:38:19;;;;;;;12.07;5.07;;;7.00;82.40;;;;;;4941069;29;20116;-89
2021/05/07 06:40:45;;;;;;;11.23;4.90;;;7.00;82.30;;;;;;4945206;28;20043;-90
2021/05/07 06:43:12;;;;;;;11.53;4.90;;;7.00;82.20;;;;;;4958078;28;20031;-84
2021/05/07 06:45:37;;;;;;;12.17;4.90;;;7.00;82.20;;;;;;4935180;28;20115;-91
2021/05/07 06:48:05;;;;;;;13.03;4.73;;;7.10;82.40;;;;;;4941457;29;20079;-91
2021/05/07 06:50:31;;;;;;;12.27;4.87;;;7.10;82.20;;;;;;4942659;29;20031;-92
2021/05/07 06:52:57;;;;;;;11.20;4.10;;;7.10;82.10;;;;;;4946222;29;20054;-94
2021/05/07 06:55:22;;;;;;;10.30;4.40;;;7.20;82.00;;;;;;4948833;29;20392;-93
2021/05/07 06:57:50;;;;;;;11.30;4.70;;;7.10;81.80;;;;;;4944722;29;20067;-86
2021/05/07 07:00:16;;;;;;;9.60;3.77;;;7.10;81.90;;;;;;4950092;29;20027;-87
2021/05/07 07:02:42;;;;;;;7.97;3.33;;;7.20;81.90;;;;;;4971464;28;20024;-92
2021/05/07 07:05:08;;;;;;;10.23;3.60;;;7.20;81.70;;;;;;4950483;29;20030;-92
2021/05/07 07:07:37;;;;;;;7.50;3.40;;;7.20;81.50;;;;;;4945361;29;20031;-94
2021/05/07 07:10:04;;;;;;;8.88;3.40;;;7.30;81.50;;;;;;4946753;29;20024;-88
2021/05/07 07:12:30;;;;;;;7.37;2.77;;;7.30;81.60;;;;;;4939940;29;20122;-85
2021/05/07 07:14:55;;;;;;;6.70;2.93;;;7.40;81.20;;;;;;4939084;29;20107;-87
2021/05/07 07:17:21;;;;;;;8.70;3.07;;;7.40;80.90;;;;;;4939497;29;20039;-87
2021/05/07 07:19:47;;;;;;;8.40;2.77;;;7.50;80.60;;;;;;4938230;29;20030;-88
2021/05/07 07:22:22;;;;;;;8.13;2.80;;;7.60;80.50;;;;;;4945022;28;20026;-91
2021/05/07 07:24:49;;;;;;;6.73;2.77;;;7.60;80.40;;;;;;4947714;29;20034;-91
2021/05/07 07:27:15;;;;;;;9.13;2.70;;;7.60;80.40;;;;;;4951816;29;20075;-93
2021/05/07 07:29:40;;;;;;;6.23;2.60;;;7.50;80.50;;;;;;4947709;28;20027;-92
2021/05/07 07:32:06;;;;;;;7.43;2.40;;;7.50;80.40;;;;;;4951022;29;20115;-93
2021/05/07 07:34:32;;;;;;;7.67;2.50;;;7.40;80.30;;;;;;4957516;29;20099;-93
2021/05/07 07:36:57;;;;;;;6.23;2.50;;;7.40;80.30;;;;;;4953369;29;20090;-91
2021/05/07 07:39:23;;;;;;;7.80;2.63;;;7.40;80.40;;;;;;4954506;29;20035;-92
2021/05/07 07:41:50;;;;;;;5.80;2.70;;;7.40;80.40;;;;;;4950050;29;20078;-94
2021/05/07 07:44:17;;;;;;;6.40;2.70;;;7.30;80.90;;;;;;4948801;29;20047;-92
2021/05/07 07:46:43;;;;;;;6.53;2.80;;;7.30;81.00;;;;;;4940813;29;20074;-92
2021/05/07 07:49:09;;;;;;;5.13;2.60;;;7.30;80.70;;;;;;4926952;29;20393;-93
2021/05/07 07:51:35;;;;;;;6.43;2.60;;;7.30;80.50;;;;;;4916698;29;20023;-73
2021/05/07 07:54:03;;;;;;;7.17;3.17;;;7.30;80.70;;;;;;4915516;29;20024;-77
2021/05/07 07:59:53;;;;;;;5.87;3.00;;;7.30;81.10;;;;;;4940486;29;20043;-88
2021/05/07 08:02:19;;;;;;;6.07;3.10;;;7.20;80.90;;;;;;4939493;29;20039;-92
2021/05/07 08:04:45;;;;;;;9.00;3.73;;;7.20;81.00;;;;;;4906442;29;20036;-91
2021/05/07 08:07:12;;;;;;;8.30;3.77;;;7.20;81.20;;;;;;4922238;29;20371;-89
2021/05/07 08:09:38;;;;;;;10.10;3.73;;;7.10;81.80;;;;;;4922400;29;20063;-90
2021/05/07 08:12:05;;;;;;;7.03;3.27;;;7.10;81.60;;;;;;4919819;29;20037;-91
2021/05/07 08:14:30;;;;;;;8.03;3.03;;;7.10;81.60;;;;;;4920949;29;20483;-92
2021/05/07 08:16:56;;;;;;;6.07;3.10;;;7.10;81.70;;;;;;4920713;29;20069;-89
2021/05/07 08:19:22;;;;;;;4.87;2.93;;;7.10;81.70;;;;;;4921105;29;20024;-90
2021/05/07 08:21:47;;;;;;;7.83;3.63;;;7.10;81.90;;;;;;4932710;29;20032;-91
2021/05/07 08:24:13;;;;;;;6.53;3.33;;;7.10;82.80;;;;;;4919819;29;20091;-91
2021/05/07 08:26:39;;;;;;;6.97;3.63;;;7.20;82.60;;;;;;4917340;29;20058;-92
2021/05/07 08:29:05;;;;;;;8.67;3.90;;;7.30;82.30;;;;;;4916800;29;20103;-69
2021/05/07 08:31:30;;;;;;;6.80;3.03;;;7.40;82.10;;;;;;4948342;29;20063;-69
2021/05/07 08:55:11;;;;;;;6.83;2.80;;;8.20;81.00;;;;;;4957888;29;20062;-93
2021/05/07 08:57:38;;;;;;;8.10;3.43;;;8.40;80.60;;;;;;4940372;28;20054;-91
2021/05/07 09:00:08;;;;;;;6.97;2.77;;;8.60;80.00;;;;;;4923095;29;20035;-86
2021/05/07 09:02:34;;;;;;;5.47;2.90;;;8.70;79.40;;;;;;4934986;29;20107;-93
2021/05/07 09:05:00;;;;;;;7.80;2.77;;;8.80;78.80;;;;;;4931780;29;20425;-91
2021/05/07 09:07:30;;;;;;;4.30;2.70;;;8.80;78.50;;;;;;4940218;29;20383;-93
2021/05/07 09:10:00;;;;;;;6.23;2.60;;;8.80;78.50;;;;;;4940375;29;20039;-92
2021/05/07 09:12:30;;;;;;;6.90;2.50;;;8.70;78.30;;;;;;4937241;28;20492;-87
2021/05/07 09:14:57;;;;;;;4.60;2.70;;;8.60;78.50;;;;;;4947256;29;20126;-92
2021/05/07 09:17:24;;;;;;;6.03;2.63;;;8.60;78.70;;;;;;4930136;29;20113;-84
2021/05/07 09:20:01;;;;;;;4.90;2.60;;;8.60;78.80;;;;;;4922089;28;20394;-83
2021/05/07 09:22:27;;;;;;;5.63;2.57;;;8.60;78.80;;;;;;4925773;29;20123;-82
2021/05/07 09:25:08;;;;;;;6.77;2.90;;;8.70;78.80;;;;;;4945854;29;20035;-93
2021/05/07 09:27:34;;;;;;;9.57;2.90;;;8.80;78.60;;;;;;4930929;29;20027;-90
2021/05/07 09:30:00;;;;;;;6.50;2.47;;;8.90;78.00;;;;;;4932841;29;20029;-91
2021/05/07 09:32:33;;;;;;;4.90;2.57;;;9.10;77.90;;;;;;4935035;29;20019;-89
2021/05/07 09:35:11;;;;;;;4.43;2.27;;;9.20;77.50;;;;;;4930907;29;20031;-90
2021/05/07 09:37:38;;;;;;;5.60;2.30;;;9.30;76.30;;;;;;4942183;29;20031;-91
2021/05/07 09:40:18;;;;;;;4.87;2.33;;;9.30;76.40;;;;;;4953440;29;20059;-91
2021/05/07 09:42:45;;;;;;;6.37;3.00;;;9.30;76.20;;;;;;4937087;29;20527;-88
2021/05/07 09:45:22;;;;;;;7.03;2.40;;;9.20;76.30;;;;;;4926793;29;20039;-88
2021/05/07 09:47:49;;;;;;;6.57;2.67;;;9.20;76.40;;;;;;4925776;29;20401;-89
2021/05/07 09:50:16;;;;;;;5.80;2.27;;;9.10;76.40;;;;;;4930439;29;20039;-89
2021/05/07 09:52:42;;;;;;;5.17;2.50;;;9.10;76.20;;;;;;4928846;29;20035;-87
2021/05/07 09:55:08;;;;;;;7.10;2.30;;;9.00;76.20;;;;;;4927825;29;20050;-89
2021/05/07 09:57:35;;;;;;;6.17;2.67;;;9.00;76.40;;;;;;4925669;29;20094;-89
2021/05/07 10:00:02;;;;;;;8.57;2.33;;;9.20;76.60;;;;;;4927869;29;20046;-89
2021/05/07 10:02:29;;;;;;;5.70;2.30;;;9.40;76.50;;;;;;4926862;29;20086;-92
2021/05/07 10:04:57;;;;;;;5.38;2.22;;;9.50;76.20;;;;;;4931882;29;20046;-73
2021/05/07 10:07:23;;;;;;;5.28;2.22;;;9.70;75.40;;;;;;4938499;29;20050;-80
2021/05/07 10:09:49;;;;;;;8.57;1.92;;;9.90;75.00;;;;;;4944216;29;20027;-80
2021/05/07 10:12:17;;;;;;;8.90;2.10;;;10.00;74.40;;;;;;4942371;28;20638;-79
2021/05/07 10:14:45;;;;;;;2.72;1.60;;;10.20;73.70;;;;;;4925346;29;20046;-78
2021/05/07 10:17:12;;;;;;;5.63;2.17;;;10.30;70.10;;;;;;4940491;28;20572;-80
2021/05/07 10:19:44;;;;;;;3.88;1.80;;;10.50;72.30;;;;;;4943115;28;20035;-81
2021/05/07 10:22:11;;;;;;;4.90;2.00;;;10.50;71.60;;;;;;4928519;29;20035;-77
2021/05/07 10:24:39;;;;;;;5.13;2.58;;;10.50;71.30;;;;;;4930235;29;20035;-78
2021/05/07 10:27:22;;;;;;;4.55;2.30;;;10.50;71.80;;;;;;4948177;29;20071;-76
2021/05/07 10:29:58;;;;;;;5.77;2.20;;;10.30;70.70;;;;;;4925112;29;20039;-77
2021/05/07 10:32:37;;;;;;;5.55;1.92;;;10.20;72.60;;;;;;4935940;29;20027;-75
2021/05/07 10:35:04;;;;;;;4.60;2.10;;;10.10;71.50;;;;;;4954645;29;20065;-77
2021/05/07 10:37:42;;;;;;;7.80;2.13;;;10.00;72.60;;;;;;4944316;28;20504;-75
2021/05/07 10:40:10;;;;;;;4.55;1.77;;;10.00;73.30;;;;;;4926849;29;20039;-78
2021/05/07 10:42:35;;;;;;;6.70;2.00;;;10.20;72.90;;;;;;4928165;29;20110;-81
2021/05/07 10:45:02;;;;;;;5.50;1.90;;;10.40;73.10;;;;;;4924215;29;20035;-77
2021/05/07 10:47:32;;;;;;;7.55;1.83;;;10.50;72.60;;;;;;4940607;29;20035;-79
2021/05/07 10:49:58;;;;;;;5.22;1.50;;;10.70;71.90;;;;;;4938543;29;20548;-77
2021/05/07 10:52:24;;;;;;;5.55;1.88;;;10.80;71.50;;;;;;4922104;29;20035;-80
2021/05/07 10:55:01;;;;;;;6.72;1.90;;;11.00;70.90;;;;;;4925912;29;20118;-80
2021/05/07 10:57:29;;;;;;;2.55;1.50;;;11.10;70.20;;;;;;4919691;29;20327;-80
2021/05/07 11:00:02;;;;;;;6.88;2.03;;;11.30;69.80;;;;;;4938141;28;20058;-78
2021/05/07 11:02:27;;;;;;;5.18;1.85;;;11.40;68.70;;;;;;4925012;29;20094;-87
2021/05/07 11:04:53;;;;;;;6.03;1.80;;;11.60;68.60;;;;;;4925117;29;20134;-83
2021/05/07 11:07:30;;;;;;;5.07;1.63;;;11.70;68.60;;;;;;4923685;29;20775;-80
2021/05/07 11:10:09;;;;;;;5.72;1.60;;;11.80;64.90;;;;;;4925962;29;20059;-81
2021/05/07 11:12:37;;;;;;;6.93;1.58;;;11.80;66.70;;;;;;4926542;29;20054;-80
2021/05/07 11:15:13;;;;;;;5.03;1.90;;;11.80;66.90;;;;;;4944325;29;20031;-82
2021/05/07 11:17:38;;;;;;;4.20;1.50;;;11.90;66.30;;;;;;4942751;29;20043;-79
2021/05/07 11:20:04;;;;;;;4.93;1.70;;;11.90;65.30;;;;;;4963687;29;20035;-78
2021/05/07 11:22:30;;;;;;;5.65;1.58;;;11.90;65.90;;;;;;4943099;29;20105;-78
2021/05/07 11:24:56;;;;;;;3.55;1.90;;;11.80;65.50;;;;;;4926520;28;20647;-82
2021/05/07 11:27:26;;;;;;;6.32;1.70;;;11.80;66.30;;;;;;4926250;29;20158;-80
2021/05/07 11:30:03;;;;;;;6.18;1.65;;;11.70;65.30;;;;;;4923419;29;20040;-77
2021/05/07 11:32:29;;;;;;;6.60;1.92;;;11.70;65.50;;;;;;4945437;29;20028;-79
2021/05/07 11:34:56;;;;;;;6.22;2.30;;;11.60;64.10;;;;;;4924585;28;20102;-77
2021/05/07 11:37:23;;;;;;;5.10;2.00;;;11.60;64.50;;;;;;4948843;29;20065;-82
2021/05/07 11:39:55;;;;;;;3.88;1.85;;;11.60;65.50;;;;;;4932399;29;20039;-83
2021/05/07 11:42:35;;;;;;;8.07;1.70;;;11.80;65.50;;;;;;4931256;29;20353;-81
2021/05/07 11:45:06;;;;;;;9.55;1.90;;;11.90;65.20;;;;;;4949094;29;20515;-78
2021/05/07 11:47:33;;;;;;;7.05;1.75;;;12.10;65.20;;;;;;4933883;29;20039;-81
2021/05/07 11:50:00;;;;;;;9.25;1.90;;;12.30;64.10;;;;;;4948341;28;20117;-80
2021/05/07 11:52:37;;;;;;;3.30;1.60;;;12.50;64.00;;;;;;4933519;29;20334;-79
2021/05/07 11:55:06;;;;;;;31.08;3.50;;;12.50;63.00;;;;;;4949906;29;20062;-83
2021/05/07 11:57:33;;;;;;;12.55;2.72;;;12.50;62.50;;;;;;4929395;29;20062;-82
2021/05/07 12:00:00;;;;;;;17.63;2.45;;;12.40;63.10;;;;;;4925382;29;20229;-82
2021/05/07 12:02:28;;;;;;;10.10;2.17;;;12.30;64.20;;;;;;4927024;29;20039;-82
2021/05/07 12:04:57;;;;;;;10.15;2.25;;;12.20;64.50;;;;;;4923679;29;20035;-85
2021/05/07 12:07:23;;;;;;;;;;;12.10;64.90;;;;;;4924546;29;20035;-84
2021/05/07 12:09:50;;;;;;;6.65;2.00;;;12.00;59.90;;;;;;4924670;29;20417;-84
2021/05/07 12:12:16;;;;;;;3.72;1.50;;;12.10;65.80;;;;;;4925003;29;20045;-84
2021/05/07 12:14:51;;;;;;;7.95;1.85;;;12.10;64.90;;;;;;4941665;29;20443;-85
2021/05/07 12:17:18;;;;;;;4.45;1.70;;;12.10;64.90;;;;;;4925315;29;20523;-84
2021/05/07 12:19:44;;;;;;;14.18;2.15;;;12.00;63.00;;;;;;4944900;29;20428;-83
2021/05/07 12:22:21;;;;;;;25.23;2.90;;;11.90;64.50;;;;;;4946480;29;20361;-84
2021/05/07 12:24:46;;;;;;;5.57;1.75;;;11.90;62.90;;;;;;4926438;29;20111;-84
2021/05/07 12:27:12;;;;;;;18.20;2.60;;;11.80;64.30;;;;;;4944592;29;20056;-82
2021/05/07 12:29:38;;;;;;;7.40;1.95;;;11.70;64.10;;;;;;4925531;29;20035;-84
2021/05/07 12:32:04;;;;;;;6.30;1.85;;;11.70;64.40;;;;;;4924392;29;20458;-83
2021/05/07 12:34:30;;;;;;;9.85;2.53;;;11.60;63.50;;;;;;4923286;29;20535;-84
2021/05/07 12:37:01;;;;;;;5.47;1.83;;;11.70;64.80;;;;;;4940718;28;20054;-84
2021/05/07 12:39:28;;;;;;;6.75;2.03;;;11.90;63.80;;;;;;4924431;29;20039;-84
2021/05/07 12:41:55;;;;;;;7.10;2.00;;;12.00;62.00;;;;;;4923749;29;20161;-84
2021/05/07 12:44:22;;;;;;;5.45;1.40;;;12.10;62.70;;;;;;4922958;29;20571;-84
2021/05/07 12:46:47;;;;;;;4.20;1.67;;;12.10;59.40;;;;;;4941684;29;20047;-82
2021/05/07 12:49:13;;;;;;;8.88;2.05;;;12.10;60.00;;;;;;4926007;29;20075;-84
2021/05/07 12:51:39;;;;;;;6.88;1.73;;;12.00;60.80;;;;;;4925739;29;20062;-84
2021/05/07 12:54:21;;;;;;;4.35;1.70;;;11.90;61.10;;;;;;4931025;29;20114;-88
2021/05/07 12:56:47;;;;;;;8.73;2.20;;;11.90;61.00;;;;;;4941726;29;20062;-90
2021/05/07 12:59:13;;;;;;;6.80;2.30;;;11.80;62.60;;;;;;4937591;29;20039;-90
2021/05/07 13:01:38;;;;;;;9.27;2.67;;;11.70;62.80;;;;;;4938973;29;20031;-88
2021/05/07 13:04:06;;;;;;;6.22;2.10;;;11.60;63.60;;;;;;4939547;29;20130;-88
2021/05/07 13:06:31;;;;;;;6.57;1.95;;;11.50;64.10;;;;;;4943162;29;20031;-84
2021/05/07 13:08:57;;;;;;;7.97;2.53;;;11.40;64.50;;;;;;4949260;29;20047;-91
2021/05/07 13:11:23;;;;;;;5.05;2.05;;;11.40;64.50;;;;;;4946628;29;20034;-89